Terminal Aerodrome Forecast
Issued by NWS

Home | Current Version | Previous Version | Text Only | Print | Product List | Glossary On
Versions: 1 2 3 4 5 6 7 8 9 10 11 12 13
864
FTUS45 KABQ 142214 AAA
TAFSAF
TAF AMD
KSAF 142214Z 1422/1518 27011KT P6SM BKN200
      TEMPO 1422/1501 26014G24KT
     FM150200 32008KT P6SM FEW200
     FM151000 36010KT P6SM FEW250=

USA.gov is the U.S. government's official web portal to all federal, state and local government web resources and services.